createdAt,value
2022-09-28T00:00:05.754Z,970.14
2022-09-28T00:01:05.743Z,970.10
2022-09-28T00:02:05.899Z,970.10
2022-09-28T00:03:05.774Z,970.14
2022-09-28T00:04:05.698Z,970.10
2022-09-28T00:05:05.694Z,970.12
2022-09-28T00:06:05.682Z,970.08
2022-09-28T00:07:05.691Z,970.11
2022-09-28T00:08:05.666Z,970.04
2022-09-28T00:09:05.674Z,970.10
2022-09-28T00:10:05.647Z,970.12
2022-09-28T00:11:05.631Z,970.13
2022-09-28T00:12:05.611Z,970.14
2022-09-28T00:13:05.595Z,970.09
2022-09-28T00:14:05.668Z,970.11
2022-09-28T00:15:05.582Z,970.12
2022-09-28T00:16:05.682Z,970.12
2022-09-28T00:17:05.587Z,970.15
2022-09-28T00:18:05.537Z,970.12
2022-09-28T00:19:05.565Z,970.13
2022-09-28T00:20:05.522Z,970.13
2022-09-28T00:21:05.512Z,970.15
2022-09-28T00:22:05.506Z,970.11
2022-09-28T00:23:05.502Z,970.15
2022-09-28T00:24:05.478Z,970.14
2022-09-28T00:25:05.485Z,970.15
2022-09-28T00:26:05.453Z,970.18
2022-09-28T00:27:05.432Z,970.15
2022-09-28T00:28:05.439Z,970.18
2022-09-28T00:29:05.427Z,970.19
2022-09-28T00:30:05.433Z,970.19
2022-09-28T00:31:05.459Z,970.18
2022-09-28T00:32:05.379Z,970.23
2022-09-28T00:33:05.365Z,970.23
2022-09-28T00:34:05.370Z,970.25
2022-09-28T00:35:05.377Z,970.23
2022-09-28T00:36:05.342Z,970.27
2022-09-28T00:37:05.321Z,970.26
2022-09-28T00:38:05.321Z,970.26
2022-09-28T00:39:05.303Z,970.25
2022-09-28T00:40:05.360Z,970.24
2022-09-28T00:41:05.277Z,970.27
2022-09-28T00:42:05.261Z,970.25
2022-09-28T00:43:05.266Z,970.27
2022-09-28T00:44:05.261Z,970.19
2022-09-28T00:45:05.230Z,970.25
2022-09-28T00:46:05.292Z,970.25
2022-09-28T00:47:05.210Z,970.23
2022-09-28T00:48:05.254Z,970.26
2022-09-28T00:49:05.186Z,970.30
2022-09-28T00:50:05.222Z,970.25
2022-09-28T00:51:05.187Z,970.28
2022-09-28T00:52:05.158Z,970.31
2022-09-28T00:53:05.159Z,970.32
2022-09-28T00:54:05.128Z,970.31
2022-09-28T00:55:05.154Z,970.35
2022-09-28T00:56:05.152Z,970.33
2022-09-28T00:57:05.104Z,970.33
2022-09-28T00:58:05.086Z,970.32
2022-09-28T00:59:05.088Z,970.32
2022-09-28T01:00:05.136Z,970.34
2022-09-28T01:01:05.113Z,970.32
2022-09-28T01:02:05.092Z,970.33
2022-09-28T01:03:05.040Z,970.33
2022-09-28T01:04:05.040Z,970.31
2022-09-28T01:05:05.027Z,970.28
2022-09-28T01:06:05.036Z,970.31
2022-09-28T01:07:05.050Z,970.33
2022-09-28T01:08:04.986Z,970.28
2022-09-28T01:09:04.962Z,970.34
2022-09-28T01:10:04.990Z,970.27
2022-09-28T01:11:04.945Z,970.29
2022-09-28T01:12:04.939Z,970.29
2022-09-28T01:13:04.960Z,970.26
2022-09-28T01:14:04.924Z,970.37
2022-09-28T01:15:04.906Z,970.33
2022-09-28T01:16:04.980Z,970.34
2022-09-28T01:17:04.915Z,970.33
2022-09-28T01:18:04.874Z,970.30
2022-09-28T01:19:04.867Z,970.36
2022-09-28T01:20:04.859Z,970.34
2022-09-28T01:21:04.885Z,970.30
2022-09-28T01:22:04.845Z,970.30
2022-09-28T01:23:04.817Z,970.28
2022-09-28T01:24:04.812Z,970.34
2022-09-28T01:25:04.787Z,970.35
2022-09-28T01:26:04.810Z,970.33
2022-09-28T01:27:04.812Z,970.33
2022-09-28T01:28:04.760Z,970.37
2022-09-28T01:29:04.763Z,970.36
2022-09-28T01:30:04.738Z,970.33
2022-09-28T01:31:04.740Z,970.33
2022-09-28T01:32:04.738Z,970.33
2022-09-28T01:33:04.708Z,970.35
2022-09-28T01:34:04.712Z,970.34
2022-09-28T01:35:04.691Z,970.36
2022-09-28T01:36:04.669Z,970.41
2022-09-28T01:37:04.665Z,970.37
2022-09-28T01:38:04.661Z,970.35
2022-09-28T01:39:04.632Z,970.38
2022-09-28T01:40:04.628Z,970.36
2022-09-28T01:41:04.624Z,970.38
2022-09-28T01:42:04.621Z,970.36
2022-09-28T01:43:04.609Z,970.38
2022-09-28T01:44:04.593Z,970.40
2022-09-28T01:45:04.589Z,970.40
2022-09-28T01:46:04.664Z,970.38
2022-09-28T01:47:04.543Z,970.36
2022-09-28T01:48:04.545Z,970.40
2022-09-28T01:49:04.534Z,970.36
2022-09-28T01:50:04.513Z,970.36
2022-09-28T01:51:04.509Z,970.32
2022-09-28T01:52:04.492Z,970.32
2022-09-28T01:53:04.513Z,970.39
2022-09-28T01:54:04.468Z,970.37
2022-09-28T01:55:04.516Z,970.42
2022-09-28T01:56:04.447Z,970.46
2022-09-28T01:57:04.438Z,970.43
2022-09-28T01:58:04.409Z,970.47
2022-09-28T01:59:04.449Z,970.50
2022-09-28T02:00:04.397Z,970.49
2022-09-28T02:01:04.441Z,970.55
2022-09-28T02:02:04.440Z,970.52
2022-09-28T02:03:04.381Z,970.54
2022-09-28T02:04:04.352Z,970.51
2022-09-28T02:05:04.383Z,970.52
2022-09-28T02:06:04.332Z,970.52
2022-09-28T02:07:04.326Z,970.56
2022-09-28T02:08:04.337Z,970.56
2022-09-28T02:09:04.305Z,970.59
2022-09-28T02:10:04.278Z,970.56
2022-09-28T02:11:04.285Z,970.58
2022-09-28T02:12:04.255Z,970.60
2022-09-28T02:13:04.276Z,970.63
2022-09-28T02:14:04.256Z,970.63
2022-09-28T02:15:04.220Z,970.61
2022-09-28T02:16:04.270Z,970.61
2022-09-28T02:17:04.201Z,970.58
2022-09-28T02:18:04.219Z,970.61
2022-09-28T02:19:04.208Z,970.61
2022-09-28T02:20:04.178Z,970.66
2022-09-28T02:21:04.158Z,970.65
2022-09-28T02:22:04.159Z,970.63
2022-09-28T02:23:04.273Z,970.68
2022-09-28T02:24:04.151Z,970.64
2022-09-28T02:25:04.118Z,970.63
2022-09-28T02:26:04.100Z,970.68
2022-09-28T02:27:04.110Z,970.66
2022-09-28T02:28:04.108Z,970.70
2022-09-28T02:29:04.091Z,970.66
2022-09-28T02:30:04.068Z,970.70
2022-09-28T02:31:04.095Z,970.70
2022-09-28T02:32:04.069Z,970.72
2022-09-28T02:33:04.016Z,970.70
2022-09-28T02:34:04.044Z,970.72
2022-09-28T02:35:04.012Z,970.73
2022-09-28T02:36:03.994Z,970.72
2022-09-28T02:37:04.005Z,970.77
2022-09-28T02:38:03.979Z,970.76
2022-09-28T02:39:03.974Z,970.77
2022-09-28T02:40:03.953Z,970.82
2022-09-28T02:41:03.938Z,970.81
2022-09-28T02:42:03.931Z,970.79
2022-09-28T02:43:03.919Z,970.80
2022-09-28T02:44:03.932Z,970.82
2022-09-28T02:45:03.923Z,970.83
2022-09-28T02:46:03.936Z,970.81
2022-09-28T02:47:03.882Z,970.84
2022-09-28T02:48:03.851Z,970.82
2022-09-28T02:49:21.022Z,970.84
2022-09-28T02:50:03.848Z,970.81
2022-09-28T02:51:03.842Z,970.81
2022-09-28T02:52:03.830Z,970.79
2022-09-28T02:53:03.795Z,970.79
2022-09-28T02:54:03.807Z,970.81
2022-09-28T02:55:03.774Z,970.82
2022-09-28T02:56:03.769Z,970.81
2022-09-28T02:57:03.756Z,970.81
2022-09-28T02:58:03.766Z,970.82
2022-09-28T02:59:03.762Z,970.84
2022-09-28T03:00:03.715Z,970.83
2022-09-28T03:01:03.852Z,970.82
2022-09-28T03:02:03.757Z,970.83
2022-09-28T03:03:03.697Z,970.82
2022-09-28T03:04:03.724Z,970.79
2022-09-28T03:05:03.700Z,970.81
2022-09-28T03:06:03.658Z,970.79
2022-09-28T03:07:03.675Z,970.80
2022-09-28T03:08:03.641Z,970.78
2022-09-28T03:09:03.626Z,970.79
2022-09-28T03:10:03.662Z,970.76
2022-09-28T03:11:03.594Z,970.79
2022-09-28T03:12:03.663Z,970.79
2022-09-28T03:13:03.647Z,970.82
2022-09-28T03:14:03.601Z,970.80
2022-09-28T03:15:03.558Z,970.84
2022-09-28T03:16:03.613Z,970.83
2022-09-28T03:17:03.550Z,970.83
2022-09-28T03:18:03.540Z,970.78
2022-09-28T03:19:03.547Z,970.85
2022-09-28T03:20:03.501Z,970.87
2022-09-28T03:21:03.507Z,970.89
2022-09-28T03:22:03.511Z,970.82
2022-09-28T03:23:23.902Z,970.87
2022-09-28T03:24:03.471Z,970.88
2022-09-28T03:25:03.520Z,970.90
2022-09-28T03:26:03.433Z,970.85
2022-09-28T03:27:03.415Z,970.87
2022-09-28T03:28:03.441Z,970.88
2022-09-28T03:29:03.428Z,970.90
2022-09-28T03:30:03.393Z,970.90
2022-09-28T03:31:03.457Z,970.94
2022-09-28T03:32:03.357Z,970.91
2022-09-28T03:33:03.377Z,970.91
2022-09-28T03:34:03.433Z,970.88
2022-09-28T03:35:03.398Z,970.88
2022-09-28T03:36:03.355Z,970.89
2022-09-28T03:37:03.316Z,970.91
2022-09-28T03:38:03.318Z,970.93
2022-09-28T03:39:03.284Z,970.92
2022-09-28T03:40:03.304Z,970.95
2022-09-28T03:41:03.314Z,970.89
2022-09-28T03:42:03.250Z,970.96
2022-09-28T03:43:03.296Z,970.96
2022-09-28T03:44:03.241Z,970.94
2022-09-28T03:45:03.237Z,970.93
2022-09-28T03:46:03.365Z,970.92
2022-09-28T03:47:03.195Z,970.95
2022-09-28T03:48:03.177Z,970.95
2022-09-28T03:49:03.201Z,970.93
2022-09-28T03:50:03.173Z,970.96
2022-09-28T03:51:03.172Z,970.95
2022-09-28T03:52:03.202Z,970.96
2022-09-28T03:53:03.137Z,970.94
2022-09-28T03:54:03.151Z,970.97
2022-09-28T03:55:03.397Z,970.96
2022-09-28T03:56:03.092Z,970.96
2022-09-28T03:57:03.129Z,970.97
2022-09-28T03:58:03.089Z,970.95
2022-09-28T03:59:03.063Z,970.98
2022-09-28T04:00:03.047Z,970.97
2022-09-28T04:01:03.177Z,971.00
2022-09-28T04:02:03.144Z,970.97
2022-09-28T04:03:03.053Z,970.99
2022-09-28T04:04:03.030Z,970.99
2022-09-28T04:05:03.011Z,971.00
2022-09-28T04:06:02.986Z,970.99
2022-09-28T04:07:02.993Z,970.99
2022-09-28T04:08:02.952Z,970.97
2022-09-28T04:09:02.965Z,970.94
2022-09-28T04:10:02.951Z,970.97
2022-09-28T04:11:02.920Z,970.97
2022-09-28T04:12:04.480Z,970.98
2022-09-28T04:13:02.972Z,970.97
2022-09-28T04:14:02.895Z,970.97
2022-09-28T04:15:02.897Z,970.96
2022-09-28T04:16:02.941Z,971.02
2022-09-28T04:17:02.872Z,970.98
2022-09-28T04:18:02.891Z,971.00
2022-09-28T04:19:03.308Z,970.99
2022-09-28T04:20:02.833Z,970.99
2022-09-28T04:21:02.824Z,970.94
2022-09-28T04:22:03.265Z,971.00
2022-09-28T04:23:02.795Z,971.05
2022-09-28T04:24:02.798Z,970.97
2022-09-28T04:25:02.777Z,970.99
2022-09-28T04:26:02.778Z,971.01
2022-09-28T04:27:02.749Z,971.01
2022-09-28T04:28:02.805Z,971.00
2022-09-28T04:29:06.382Z,971.03
2022-09-28T04:30:02.733Z,971.01
2022-09-28T04:31:02.710Z,970.97
2022-09-28T04:32:02.782Z,971.01
2022-09-28T04:33:02.675Z,971.00
2022-09-28T04:34:02.698Z,971.08
2022-09-28T04:35:02.656Z,971.10
2022-09-28T04:36:02.654Z,971.04
2022-09-28T04:37:02.641Z,971.07
2022-09-28T04:38:02.633Z,971.05
2022-09-28T04:39:02.654Z,971.05
2022-09-28T04:40:02.631Z,971.04
2022-09-28T04:41:02.634Z,971.00
2022-09-28T04:42:02.576Z,970.99
2022-09-28T04:43:02.582Z,970.98
2022-09-28T04:44:02.566Z,970.97
2022-09-28T04:45:02.563Z,970.94
2022-09-28T04:46:02.603Z,970.94
2022-09-28T04:47:05.158Z,970.97
2022-09-28T04:48:02.509Z,970.99
2022-09-28T04:49:02.511Z,970.93
2022-09-28T04:50:02.531Z,970.96
2022-09-28T04:51:02.480Z,971.01
2022-09-28T04:52:02.491Z,971.01
2022-09-28T04:53:02.453Z,971.02
2022-09-28T04:54:02.457Z,971.01
2022-09-28T04:55:02.439Z,971.04
2022-09-28T04:56:02.464Z,971.05
2022-09-28T04:57:02.407Z,971.04
2022-09-28T04:58:02.424Z,971.07
2022-09-28T04:59:02.397Z,971.06
2022-09-28T05:00:02.414Z,971.04
2022-09-28T05:01:02.431Z,970.98
2022-09-28T05:02:02.427Z,971.04
2022-09-28T05:03:02.335Z,971.05
2022-09-28T05:04:02.334Z,971.02
2022-09-28T05:05:02.322Z,971.03
2022-09-28T05:06:02.310Z,971.04
2022-09-28T05:07:02.325Z,971.01
2022-09-28T05:08:02.289Z,971.03
2022-09-28T05:09:02.275Z,971.03
2022-09-28T05:10:02.286Z,971.03
2022-09-28T05:11:02.257Z,971.04
2022-09-28T05:12:02.280Z,971.03
2022-09-28T05:13:02.756Z,971.03
2022-09-28T05:14:02.236Z,971.00
2022-09-28T05:15:02.220Z,971.04
2022-09-28T05:16:05.433Z,971.03
2022-09-28T05:17:02.248Z,971.02
2022-09-28T05:18:02.221Z,971.01
2022-09-28T05:19:02.279Z,971.02
2022-09-28T05:20:02.183Z,971.02
2022-09-28T05:21:02.148Z,971.01
2022-09-28T05:22:02.135Z,971.02
2022-09-28T05:23:02.148Z,971.04
2022-09-28T05:24:02.098Z,971.09
2022-09-28T05:25:02.099Z,971.04
2022-09-28T05:26:02.101Z,971.02
2022-09-28T05:27:02.108Z,971.07
2022-09-28T05:28:02.057Z,971.09
2022-09-28T05:29:02.080Z,971.07
2022-09-28T05:30:02.040Z,971.07
2022-09-28T05:31:02.032Z,971.08
2022-09-28T05:32:02.170Z,971.09
2022-09-28T05:33:02.058Z,971.10
2022-09-28T05:34:02.002Z,971.12
2022-09-28T05:35:01.988Z,971.13
2022-09-28T05:36:02.180Z,971.12
2022-09-28T05:37:01.958Z,971.15
2022-09-28T05:38:01.957Z,971.12
2022-09-28T05:39:01.951Z,971.13
2022-09-28T05:40:01.939Z,971.12
2022-09-28T05:41:06.243Z,971.14
2022-09-28T05:42:01.913Z,971.16
2022-09-28T05:43:01.888Z,971.15
2022-09-28T05:44:01.906Z,971.15
2022-09-28T05:45:01.881Z,971.16
2022-09-28T05:46:01.910Z,971.21
2022-09-28T05:47:01.860Z,971.19
2022-09-28T05:48:01.836Z,971.20
2022-09-28T05:49:01.851Z,971.16
2022-09-28T05:50:01.818Z,971.18
2022-09-28T05:51:01.848Z,971.17
2022-09-28T05:52:01.808Z,971.19
2022-09-28T05:53:01.798Z,971.17
2022-09-28T05:54:05.721Z,971.13
2022-09-28T05:55:01.800Z,971.13
2022-09-28T05:56:01.769Z,971.15
2022-09-28T05:57:01.816Z,971.11
2022-09-28T05:58:02.010Z,971.15
2022-09-28T05:59:01.740Z,971.17
2022-09-28T06:00:01.726Z,971.16
2022-09-28T06:01:01.768Z,971.21
2022-09-28T06:02:01.762Z,971.25
2022-09-28T06:03:04.391Z,971.25
2022-09-28T06:04:01.663Z,971.22
2022-09-28T06:05:01.653Z,971.24
2022-09-28T06:06:01.732Z,971.25
2022-09-28T06:07:01.654Z,971.28
2022-09-28T06:08:01.605Z,971.21
2022-09-28T06:09:01.616Z,971.25
2022-09-28T06:10:01.611Z,971.23
2022-09-28T06:11:01.590Z,971.27
2022-09-28T06:12:01.594Z,971.26
2022-09-28T06:13:01.584Z,971.27
2022-09-28T06:14:01.539Z,971.27
2022-09-28T06:15:01.541Z,971.27
2022-09-28T06:16:01.516Z,971.30
2022-09-28T06:17:01.592Z,971.35
2022-09-28T06:18:01.530Z,971.30
2022-09-28T06:19:01.486Z,971.32
2022-09-28T06:20:02.178Z,971.32
2022-09-28T06:21:01.470Z,971.26
2022-09-28T06:22:01.470Z,971.27
2022-09-28T06:23:01.533Z,971.31
2022-09-28T06:24:01.432Z,971.31
2022-09-28T06:25:01.433Z,971.35
2022-09-28T06:26:01.433Z,971.38
2022-09-28T06:27:01.406Z,971.30
2022-09-28T06:28:01.398Z,971.28
2022-09-28T06:29:01.438Z,971.32
2022-09-28T06:30:01.396Z,971.30
2022-09-28T06:31:01.426Z,971.28
2022-09-28T06:32:01.348Z,971.28
2022-09-28T06:33:01.350Z,971.30
2022-09-28T06:34:01.321Z,971.27
2022-09-28T06:35:01.327Z,971.29
2022-09-28T06:36:01.310Z,971.30
2022-09-28T06:37:01.294Z,971.30
2022-09-28T06:38:01.273Z,971.31
2022-09-28T06:39:01.281Z,971.31
2022-09-28T06:40:01.279Z,971.34
2022-09-28T06:41:01.303Z,971.35
2022-09-28T06:42:01.228Z,971.31
2022-09-28T06:43:01.219Z,971.32
2022-09-28T06:44:01.208Z,971.35
2022-09-28T06:45:01.235Z,971.37
2022-09-28T06:46:01.304Z,971.38
2022-09-28T06:47:01.181Z,971.34
2022-09-28T06:48:01.171Z,971.34
2022-09-28T06:49:01.162Z,971.35
2022-09-28T06:50:01.155Z,971.33
2022-09-28T06:51:01.171Z,971.36
2022-09-28T06:52:01.126Z,971.34
2022-09-28T06:53:01.131Z,971.34
2022-09-28T06:54:01.114Z,971.34
2022-09-28T06:55:01.118Z,971.36
2022-09-28T06:56:01.074Z,971.35
2022-09-28T06:57:01.149Z,971.36
2022-09-28T06:58:01.063Z,971.38
2022-09-28T06:59:01.050Z,971.38
2022-09-28T07:00:01.036Z,971.39
2022-09-28T07:01:01.140Z,971.41
2022-09-28T07:02:01.098Z,971.39
2022-09-28T07:03:00.999Z,971.40
2022-09-28T07:04:01.021Z,971.39
2022-09-28T07:05:00.980Z,971.47
2022-09-28T07:06:01.008Z,971.40
2022-09-28T07:07:00.949Z,971.41
2022-09-28T07:08:00.972Z,971.42
2022-09-28T07:09:21.002Z,971.45
2022-09-28T07:10:00.943Z,971.43
2022-09-28T07:11:00.909Z,971.46
2022-09-28T07:12:00.909Z,971.45
2022-09-28T07:13:00.913Z,971.46
2022-09-28T07:14:00.910Z,971.42
2022-09-28T07:15:00.906Z,971.46
2022-09-28T07:16:00.869Z,971.45
2022-09-28T07:17:13.705Z,971.48
2022-09-28T07:18:03.579Z,971.48
2022-09-28T07:19:00.857Z,971.45
2022-09-28T07:20:10.958Z,971.50
2022-09-28T07:21:00.803Z,971.47
2022-09-28T07:22:05.027Z,971.45
2022-09-28T07:23:11.333Z,971.51
2022-09-28T07:24:00.796Z,971.42
2022-09-28T07:25:00.747Z,971.51
2022-09-28T07:26:00.756Z,971.49
2022-09-28T07:27:00.779Z,971.44
2022-09-28T07:28:00.732Z,971.46
2022-09-28T07:29:00.703Z,971.45
2022-09-28T07:30:00.694Z,971.45
2022-09-28T07:31:00.730Z,971.51
2022-09-28T07:32:00.685Z,971.48
2022-09-28T07:33:00.692Z,971.50
2022-09-28T07:34:00.685Z,971.49
2022-09-28T07:35:00.634Z,971.48
2022-09-28T07:36:00.635Z,971.49
2022-09-28T07:37:00.621Z,971.45
2022-09-28T07:38:00.614Z,971.45
2022-09-28T07:39:00.604Z,971.48
2022-09-28T07:40:00.626Z,971.51
2022-09-28T07:41:00.658Z,971.45
2022-09-28T07:42:02.919Z,971.49
2022-09-28T07:43:00.571Z,971.50
2022-09-28T07:44:00.558Z,971.51
2022-09-28T07:45:00.564Z,971.54
2022-09-28T07:46:00.612Z,971.55
2022-09-28T07:47:00.509Z,971.53
2022-09-28T07:48:00.542Z,971.54
2022-09-28T07:49:00.483Z,971.60
2022-09-28T07:50:00.481Z,971.55
2022-09-28T07:51:00.500Z,971.58
2022-09-28T07:52:00.489Z,971.56
2022-09-28T07:53:00.487Z,971.55
2022-09-28T07:54:00.431Z,971.56
2022-09-28T07:55:04.612Z,971.59
2022-09-28T07:56:00.496Z,971.55
2022-09-28T07:57:00.394Z,971.61
2022-09-28T07:58:00.391Z,971.61
2022-09-28T07:59:00.385Z,971.60
2022-09-28T08:00:00.392Z,971.60
2022-09-28T08:01:00.414Z,971.62
2022-09-28T08:02:00.409Z,971.61
2022-09-28T08:03:00.338Z,971.62
2022-09-28T08:04:00.328Z,971.67
2022-09-28T08:05:00.311Z,971.66
2022-09-28T08:06:00.357Z,971.65
2022-09-28T08:07:00.289Z,971.67
2022-09-28T08:08:00.287Z,971.72
2022-09-28T08:09:00.269Z,971.69
2022-09-28T08:10:00.252Z,971.70
2022-09-28T08:11:00.277Z,971.74
2022-09-28T08:12:00.270Z,971.69
2022-09-28T08:13:02.621Z,971.71
2022-09-28T08:14:00.225Z,971.73
2022-09-28T08:15:00.235Z,971.73
2022-09-28T08:16:00.218Z,971.74
2022-09-28T08:17:00.181Z,971.73
2022-09-28T08:18:02.701Z,971.77
2022-09-28T08:19:00.168Z,971.77
2022-09-28T08:20:00.176Z,971.76
2022-09-28T08:21:00.163Z,971.77
2022-09-28T08:22:00.132Z,971.78
2022-09-28T08:23:00.107Z,971.83
2022-09-28T08:24:00.127Z,971.81
2022-09-28T08:25:00.098Z,971.81
2022-09-28T08:26:00.102Z,971.85
2022-09-28T08:27:00.115Z,971.84
2022-09-28T08:28:00.065Z,971.86
2022-09-28T08:29:00.060Z,971.87
2022-09-28T08:30:00.098Z,971.82
2022-09-28T08:31:00.073Z,971.82
2022-09-28T08:32:01.810Z,971.82
2022-09-28T08:33:00.039Z,971.83
2022-09-28T08:34:00.023Z,971.85
2022-09-28T08:34:59.978Z,971.83
2022-09-28T08:36:00.005Z,971.86
2022-09-28T08:36:59.965Z,971.85
2022-09-28T08:37:59.967Z,971.84
2022-09-28T08:38:59.982Z,971.86
2022-09-28T08:39:59.945Z,971.88
2022-09-28T08:41:00.001Z,971.89
2022-09-28T08:41:59.940Z,971.83
2022-09-28T08:42:59.918Z,971.88
2022-09-28T08:43:59.890Z,971.87
2022-09-28T08:44:59.888Z,971.85
2022-09-28T08:45:59.888Z,971.84
2022-09-28T08:46:59.906Z,971.84
2022-09-28T08:47:59.870Z,971.85
2022-09-28T08:49:23.720Z,971.83
2022-09-28T08:49:59.822Z,971.84
2022-09-28T08:50:59.803Z,971.85
2022-09-28T08:51:59.832Z,971.89
2022-09-28T08:52:59.769Z,971.87
2022-09-28T08:53:59.766Z,971.88
2022-09-28T08:55:00.401Z,971.88
2022-09-28T08:55:59.774Z,971.87
2022-09-28T08:56:59.760Z,971.89
2022-09-28T08:57:59.718Z,971.87
2022-09-28T08:59:00.404Z,971.95
2022-09-28T08:59:59.713Z,971.91
2022-09-28T09:00:59.723Z,971.90
2022-09-28T09:01:59.736Z,971.91
2022-09-28T09:02:59.799Z,971.93
2022-09-28T09:03:59.677Z,971.90
2022-09-28T09:04:59.637Z,971.94
2022-09-28T09:05:59.650Z,971.93
2022-09-28T09:06:59.618Z,971.86
2022-09-28T09:07:59.606Z,971.84
2022-09-28T09:08:59.649Z,971.85
2022-09-28T09:09:59.934Z,971.84
2022-09-28T09:10:59.595Z,971.84
2022-09-28T09:11:59.596Z,971.88
2022-09-28T09:12:59.558Z,971.86
2022-09-28T09:13:59.537Z,971.87
2022-09-28T09:14:59.718Z,971.88
2022-09-28T09:15:59.517Z,971.86
2022-09-28T09:17:00.641Z,971.92
2022-09-28T09:17:59.503Z,971.91
2022-09-28T09:18:59.473Z,971.91
2022-09-28T09:19:59.470Z,971.91
2022-09-28T09:20:59.506Z,971.90
2022-09-28T09:21:59.454Z,971.92
2022-09-28T09:22:59.427Z,971.94
2022-09-28T09:23:59.485Z,971.98
2022-09-28T09:24:59.433Z,971.92
2022-09-28T09:25:59.403Z,971.98
2022-09-28T09:26:59.417Z,971.97
2022-09-28T09:27:59.387Z,971.92
2022-09-28T09:28:59.375Z,971.94
2022-09-28T09:29:59.423Z,971.88
2022-09-28T09:30:59.426Z,971.93
2022-09-28T09:31:59.342Z,971.90
2022-09-28T09:32:59.335Z,971.92
2022-09-28T09:33:59.321Z,971.88
2022-09-28T09:34:59.313Z,971.92
2022-09-28T09:35:59.289Z,971.92
2022-09-28T09:36:59.281Z,971.91
2022-09-28T09:37:59.339Z,971.96
2022-09-28T09:38:59.262Z,971.90
2022-09-28T09:39:59.245Z,971.92
2022-09-28T09:40:59.337Z,971.93
2022-09-28T09:41:59.230Z,971.93
2022-09-28T09:42:59.273Z,971.91
2022-09-28T09:43:59.202Z,971.92
2022-09-28T09:44:59.189Z,971.95
2022-09-28T09:45:59.246Z,971.94
2022-09-28T09:46:59.171Z,971.94
2022-09-28T09:47:59.172Z,971.94
2022-09-28T09:48:59.162Z,971.98
2022-09-28T09:49:59.124Z,971.95
2022-09-28T09:50:59.127Z,971.99
2022-09-28T09:51:59.150Z,971.93
2022-09-28T09:52:59.092Z,971.97
2022-09-28T09:53:59.090Z,971.97
2022-09-28T09:54:59.110Z,971.94
2022-09-28T09:55:59.090Z,971.96
2022-09-28T09:56:59.054Z,971.92
2022-09-28T09:57:59.054Z,971.93
2022-09-28T09:58:59.021Z,971.92
2022-09-28T09:59:59.032Z,971.92
2022-09-28T10:00:59.064Z,971.94
2022-09-28T10:01:59.054Z,971.91
2022-09-28T10:02:59.128Z,971.92
2022-09-28T10:03:59.020Z,971.91
2022-09-28T10:04:58.955Z,971.94
2022-09-28T10:05:58.964Z,971.96
2022-09-28T10:06:58.930Z,971.93
2022-09-28T10:07:58.962Z,971.91
2022-09-28T10:08:58.921Z,971.92
2022-09-28T10:09:58.913Z,971.96
2022-09-28T10:10:58.893Z,971.95
2022-09-28T10:11:58.899Z,971.97
2022-09-28T10:12:58.899Z,971.95
2022-09-28T10:13:58.856Z,971.95
2022-09-28T10:14:58.851Z,971.99
2022-09-28T10:15:58.900Z,971.95
2022-09-28T10:16:58.904Z,971.95
2022-09-28T10:17:58.810Z,971.94
2022-09-28T10:18:58.794Z,971.95
2022-09-28T10:19:58.827Z,971.94
2022-09-28T10:20:58.783Z,971.94
2022-09-28T10:21:58.826Z,971.95
2022-09-28T10:22:58.759Z,971.91
2022-09-28T10:23:58.752Z,971.95
2022-09-28T10:24:58.738Z,971.89
2022-09-28T10:25:58.727Z,971.91
2022-09-28T10:26:58.709Z,971.90
2022-09-28T10:27:58.732Z,971.91
2022-09-28T10:28:58.702Z,971.88
2022-09-28T10:29:58.684Z,971.90
2022-09-28T10:30:58.814Z,971.92
2022-09-28T10:31:58.671Z,971.90
2022-09-28T10:32:58.675Z,971.88
2022-09-28T10:33:58.645Z,971.89
2022-09-28T10:34:58.632Z,971.89
2022-09-28T10:35:58.617Z,971.89
2022-09-28T10:36:58.615Z,971.89
2022-09-28T10:37:58.607Z,971.93
2022-09-28T10:38:58.575Z,971.92
2022-09-28T10:39:58.575Z,971.96
2022-09-28T10:40:58.678Z,971.91
2022-09-28T10:41:58.558Z,971.94
2022-09-28T10:42:58.565Z,971.88
2022-09-28T10:43:58.560Z,971.92
2022-09-28T10:44:58.511Z,971.91
2022-09-28T10:45:58.531Z,971.89
2022-09-28T10:46:58.534Z,971.92
2022-09-28T10:47:58.471Z,971.89
2022-09-28T10:48:58.482Z,971.92
2022-09-28T10:49:58.476Z,971.89
2022-09-28T10:50:58.452Z,971.93
2022-09-28T10:51:58.457Z,971.91
2022-09-28T10:52:58.418Z,971.94
2022-09-28T10:53:58.414Z,971.90
2022-09-28T10:54:58.428Z,971.95
2022-09-28T10:55:58.393Z,971.92
2022-09-28T10:56:58.379Z,971.94
2022-09-28T10:57:58.380Z,971.93
2022-09-28T10:58:58.355Z,971.95
2022-09-28T10:59:58.350Z,971.93
2022-09-28T11:00:58.398Z,971.93
2022-09-28T11:01:58.319Z,971.94
2022-09-28T11:02:58.339Z,971.93
2022-09-28T11:03:58.315Z,971.93
2022-09-28T11:04:58.293Z,971.99
2022-09-28T11:05:58.301Z,971.94
2022-09-28T11:07:01.515Z,971.96
2022-09-28T11:07:58.270Z,971.98
2022-09-28T11:08:58.240Z,971.99
2022-09-28T11:09:58.239Z,971.96
2022-09-28T11:10:58.224Z,971.97
2022-09-28T11:11:58.242Z,971.95
2022-09-28T11:12:58.214Z,971.95
2022-09-28T11:13:58.199Z,971.94
2022-09-28T11:14:58.172Z,971.94
2022-09-28T11:15:58.172Z,971.93
2022-09-28T11:16:58.236Z,971.94
2022-09-28T11:17:58.161Z,971.97
2022-09-28T11:18:58.129Z,971.95
2022-09-28T11:19:58.133Z,971.95
2022-09-28T11:20:58.121Z,971.94
2022-09-28T11:21:58.101Z,971.94
2022-09-28T11:22:58.121Z,971.94
2022-09-28T11:23:58.076Z,971.94
2022-09-28T11:24:58.073Z,971.94
2022-09-28T11:25:58.062Z,971.94
2022-09-28T11:26:58.045Z,971.96
2022-09-28T11:27:58.054Z,971.93
2022-09-28T11:28:58.043Z,971.90
2022-09-28T11:29:58.034Z,971.92
2022-09-28T11:30:58.176Z,971.94
2022-09-28T11:31:58.021Z,971.92
2022-09-28T11:32:57.990Z,971.93
2022-09-28T11:33:58.015Z,971.91
2022-09-28T11:34:59.992Z,971.92
2022-09-28T11:35:57.953Z,971.92
2022-09-28T11:37:01.591Z,971.91
2022-09-28T11:37:57.944Z,971.89
2022-09-28T11:38:57.901Z,971.92
2022-09-28T11:39:57.915Z,971.90
2022-09-28T11:40:57.921Z,971.87
2022-09-28T11:41:57.901Z,971.89
2022-09-28T11:42:57.917Z,971.89
2022-09-28T11:43:57.869Z,971.91
2022-09-28T11:44:57.867Z,971.85
2022-09-28T11:45:57.879Z,971.89
2022-09-28T11:46:57.829Z,971.90
2022-09-28T11:47:57.809Z,971.94
2022-09-28T11:48:57.885Z,971.88
2022-09-28T11:49:57.796Z,971.91
2022-09-28T11:50:57.788Z,971.88
2022-09-28T11:51:57.764Z,971.89
2022-09-28T11:52:57.762Z,971.86
2022-09-28T11:53:58.529Z,971.85
2022-09-28T11:54:57.749Z,971.83
2022-09-28T11:55:57.756Z,971.88
2022-09-28T11:56:57.713Z,971.83
2022-09-28T11:57:57.692Z,971.83
2022-09-28T11:58:57.675Z,971.81
2022-09-28T11:59:57.699Z,971.83
2022-09-28T12:00:57.693Z,971.80
2022-09-28T12:01:57.758Z,971.82
2022-09-28T12:02:57.806Z,971.83
2022-09-28T12:03:57.629Z,971.77
2022-09-28T12:04:57.637Z,971.78
2022-09-28T12:05:57.628Z,971.79
2022-09-28T12:06:57.624Z,971.79
2022-09-28T12:07:57.587Z,971.79
2022-09-28T12:08:57.575Z,971.76
2022-09-28T12:09:57.569Z,971.79
2022-09-28T12:10:57.555Z,971.78
2022-09-28T12:11:57.564Z,971.80
2022-09-28T12:12:57.545Z,971.76
2022-09-28T12:13:57.529Z,971.79
2022-09-28T12:14:57.508Z,971.81
2022-09-28T12:17:07.760Z,971.80
2022-09-28T12:17:57.582Z,971.81
2022-09-28T12:18:57.537Z,971.82
2022-09-28T12:19:57.464Z,971.81
2022-09-28T12:21:01.764Z,971.80
2022-09-28T12:21:57.431Z,971.82
2022-09-28T12:22:57.593Z,971.78
2022-09-28T12:23:57.415Z,971.81
2022-09-28T12:24:57.396Z,971.82
2022-09-28T12:25:57.399Z,971.81
2022-09-28T12:26:57.582Z,971.83
2022-09-28T12:27:57.363Z,971.81
2022-09-28T12:28:57.375Z,971.83